sensor_id;sensor_type;location;lat;lon;timestamp;temperature;humidity
8886;DHT22;4479;51.162;13.906;2022-12-31T00:16:28;11.10;99.90
8886;DHT22;4479;51.162;13.906;2022-12-31T00:26:33;11.20;99.90
8886;DHT22;4479;51.162;13.906;2022-12-31T00:36:38;11.20;99.90
8886;DHT22;4479;51.162;13.906;2022-12-31T01:16:52;11.40;99.90
8886;DHT22;4479;51.162;13.906;2022-12-31T01:47:02;11.60;99.90
8886;DHT22;4479;51.162;13.906;2022-12-31T02:07:10;11.90;99.90
8886;DHT22;4479;51.162;13.906;2022-12-31T02:47:50;12.00;99.90
8886;DHT22;4479;51.162;13.906;2022-12-31T03:28:40;12.20;99.90
8886;DHT22;4479;51.162;13.906;2022-12-31T03:38:44;12.30;99.90
8886;DHT22;4479;51.162;13.906;2022-12-31T03:58:49;12.30;99.90
8886;DHT22;4479;51.162;13.906;2022-12-31T04:18:55;12.50;99.90
8886;DHT22;4479;51.162;13.906;2022-12-31T04:39:01;12.60;99.90
8886;DHT22;4479;51.162;13.906;2022-12-31T04:59:07;12.70;99.90
8886;DHT22;4479;51.162;13.906;2022-12-31T05:19:13;12.60;99.90
8886;DHT22;4479;51.162;13.906;2022-12-31T05:39:19;12.80;99.90
8886;DHT22;4479;51.162;13.906;2022-12-31T05:59:25;12.90;99.90
8886;DHT22;4479;51.162;13.906;2022-12-31T06:19:31;13.00;99.90
8886;DHT22;4479;51.162;13.906;2022-12-31T06:39:36;13.40;99.90
8886;DHT22;4479;51.162;13.906;2022-12-31T06:59:43;13.90;99.90
8886;DHT22;4479;51.162;13.906;2022-12-31T11:07:45;18.10;99.90
8886;DHT22;4479;51.162;13.906;2022-12-31T13:01:04;18.60;99.90
8886;DHT22;4479;51.162;13.906;2022-12-31T13:11:23;18.70;99.90
8886;DHT22;4479;51.162;13.906;2022-12-31T13:21:39;18.70;99.90
8886;DHT22;4479;51.162;13.906;2022-12-31T13:31:49;18.80;99.90
8886;DHT22;4479;51.162;13.906;2022-12-31T13:41:56;18.70;99.90
8886;DHT22;4479;51.162;13.906;2022-12-31T13:52:20;18.60;99.90
8886;DHT22;4479;51.162;13.906;2022-12-31T14:02:32;18.50;99.90
8886;DHT22;4479;51.162;13.906;2022-12-31T14:12:47;18.50;99.90
8886;DHT22;4479;51.162;13.906;2022-12-31T14:23:00;18.40;99.90
8886;DHT22;4479;51.162;13.906;2022-12-31T14:33:18;18.30;99.90
8886;DHT22;4479;51.162;13.906;2022-12-31T14:43:34;18.10;99.90
8886;DHT22;4479;51.162;13.906;2022-12-31T14:53:50;18.10;99.90
8886;DHT22;4479;51.162;13.906;2022-12-31T15:03:54;17.90;99.90
8886;DHT22;4479;51.162;13.906;2022-12-31T15:24:43;17.70;99.90
8886;DHT22;4479;51.162;13.906;2022-12-31T15:34:59;17.60;99.90
8886;DHT22;4479;51.162;13.906;2022-12-31T15:45:05;17.50;99.90
8886;DHT22;4479;51.162;13.906;2022-12-31T15:55:18;17.50;99.90
8886;DHT22;4479;51.162;13.906;2022-12-31T16:05:26;17.40;99.90
8886;DHT22;4479;51.162;13.906;2022-12-31T16:15:31;17.30;99.90
8886;DHT22;4479;51.162;13.906;2022-12-31T16:35:38;17.10;99.90
8886;DHT22;4479;51.162;13.906;2022-12-31T16:55:50;17.10;99.90
8886;DHT22;4479;51.162;13.906;2022-12-31T17:05:57;17.10;99.90
8886;DHT22;4479;51.162;13.906;2022-12-31T17:16:04;17.10;99.90
8886;DHT22;4479;51.162;13.906;2022-12-31T19:36:57;17.00;99.90
8886;DHT22;4479;51.162;13.906;2022-12-31T19:57:03;16.80;99.90
8886;DHT22;4479;51.162;13.906;2022-12-31T20:07:05;16.60;99.90
8886;DHT22;4479;51.162;13.906;2022-12-31T20:17:08;16.20;99.90
8886;DHT22;4479;51.162;13.906;2022-12-31T20:37:14;16.40;99.90
8886;DHT22;4479;51.162;13.906;2022-12-31T20:57:20;16.60;99.90
